MET'MAP v2.0
soon released !

Expected late october,
this new version will be
more efficient, smarter,
and hosted on a brand new
server x3 powerfull...
...and still free !


Not compatible ?
Try the mobile version !

LOG IN : | Subscribe | Disclaimer | Who is Orbifly ? |
ICAO code :

TAF - ETNG Geilenkirchen Airport - 24 Sep 2020 03:01 UTC
Data Sources :     NOAA   


- Airport Elevation : 296 ft
- IATA code : GKE
- No reported NOTAMs.


ETNG - Geilenkirchen Airport

Latest METAR recorded : 2015/08/11 07:50 ETNG 110750Z 27005KT 6000 FEW140 21/16 Q1019 NOSIG
TAF TAF ETNG
Valid from the 24 at 00:00 until the 24 at 15:00 UTC


232300Z 2400/2415 19008KT CAVOK
TEMPO 2400/2402 23018G30KT 4000 RA SHRA SCT018CB BKN025
BECMG 2402/2404 25013KT
BECMG 2404/2406 21010G15KT FEW020
BECMG 2409/2411 21012G22KT
TEMPO 2411/2414 21015G28KT

Source NOAA


MET'MAP, your aeronautical weather chart ! - Copyright ORBIFLY December 2007

Programming & Development : Alexandra Zaïnal
Co-Developer : Marc-Olivier Méhu
Technical & hardware support : Manuel Goepfert
Concept & Financing : Baudouin d'Aumeries